sensor_id;sensor_type;location;lat;lon;timestamp;P1;durP1;ratioP1;P2;durP2;ratioP2
52104;SDS011;38103;42.776;23.112;2022-08-25T00:01:39;25.92;;;8.25;;
52104;SDS011;38103;42.776;23.112;2022-08-25T00:04:10;23.33;;;7.75;;
52104;SDS011;38103;42.776;23.112;2022-08-25T00:06:38;24.52;;;7.95;;
52104;SDS011;38103;42.776;23.112;2022-08-25T00:09:05;23.00;;;7.60;;
52104;SDS011;38103;42.776;23.112;2022-08-25T00:11:32;21.38;;;7.32;;
52104;SDS011;38103;42.776;23.112;2022-08-25T00:14:00;23.20;;;7.45;;
52104;SDS011;38103;42.776;23.112;2022-08-25T00:16:29;28.17;;;7.90;;
52104;SDS011;38103;42.776;23.112;2022-08-25T00:18:59;18.30;;;7.53;;
52104;SDS011;38103;42.776;23.112;2022-08-25T00:21:29;23.58;;;7.50;;
52104;SDS011;38103;42.776;23.112;2022-08-25T00:23:55;18.60;;;7.65;;
52104;SDS011;38103;42.776;23.112;2022-08-25T00:26:22;23.25;;;7.85;;
52104;SDS011;38103;42.776;23.112;2022-08-25T00:28:47;24.48;;;7.80;;
52104;SDS011;38103;42.776;23.112;2022-08-25T00:31:14;19.58;;;6.93;;
52104;SDS011;38103;42.776;23.112;2022-08-25T00:33:44;18.73;;;7.60;;
52104;SDS011;38103;42.776;23.112;2022-08-25T00:36:11;22.08;;;7.90;;
52104;SDS011;38103;42.776;23.112;2022-08-25T00:38:41;25.95;;;8.07;;
52104;SDS011;38103;42.776;23.112;2022-08-25T00:41:09;25.58;;;7.45;;
52104;SDS011;38103;42.776;23.112;2022-08-25T00:43:43;16.92;;;7.35;;
52104;SDS011;38103;42.776;23.112;2022-08-25T00:46:12;19.83;;;7.03;;
52104;SDS011;38103;42.776;23.112;2022-08-25T00:48:42;23.80;;;7.72;;
52104;SDS011;38103;42.776;23.112;2022-08-25T00:51:10;24.05;;;7.55;;
52104;SDS011;38103;42.776;23.112;2022-08-25T00:53:38;22.42;;;8.32;;
52104;SDS011;38103;42.776;23.112;2022-08-25T00:56:04;23.25;;;7.72;;
52104;SDS011;38103;42.776;23.112;2022-08-25T00:58:30;20.35;;;8.70;;
52104;SDS011;38103;42.776;23.112;2022-08-25T01:00:57;21.58;;;7.32;;
52104;SDS011;38103;42.776;23.112;2022-08-25T01:03:23;16.13;;;7.35;;
52104;SDS011;38103;42.776;23.112;2022-08-25T01:05:52;20.63;;;8.13;;
52104;SDS011;38103;42.776;23.112;2022-08-25T01:08:19;19.95;;;7.22;;
52104;SDS011;38103;42.776;23.112;2022-08-25T01:10:49;24.75;;;8.18;;
52104;SDS011;38103;42.776;23.112;2022-08-25T01:13:16;17.63;;;7.65;;
52104;SDS011;38103;42.776;23.112;2022-08-25T01:15:45;20.73;;;7.78;;
52104;SDS011;38103;42.776;23.112;2022-08-25T01:18:12;20.60;;;7.60;;
52104;SDS011;38103;42.776;23.112;2022-08-25T01:20:38;19.25;;;7.88;;
52104;SDS011;38103;42.776;23.112;2022-08-25T01:23:03;21.38;;;7.70;;
52104;SDS011;38103;42.776;23.112;2022-08-25T01:25:32;21.98;;;8.23;;
52104;SDS011;38103;42.776;23.112;2022-08-25T01:28:09;22.88;;;8.13;;
52104;SDS011;38103;42.776;23.112;2022-08-25T01:30:35;22.92;;;8.50;;
52104;SDS011;38103;42.776;23.112;2022-08-25T01:33:05;21.02;;;7.78;;
52104;SDS011;38103;42.776;23.112;2022-08-25T01:35:32;19.17;;;9.13;;
52104;SDS011;38103;42.776;23.112;2022-08-25T01:37:59;20.88;;;8.95;;
52104;SDS011;38103;42.776;23.112;2022-08-25T01:40:25;17.42;;;8.27;;
52104;SDS011;38103;42.776;23.112;2022-08-25T01:45:36;19.08;;;8.35;;
52104;SDS011;38103;42.776;23.112;2022-08-25T01:48:03;22.38;;;8.30;;
52104;SDS011;38103;42.776;23.112;2022-08-25T01:50:31;20.77;;;7.78;;
52104;SDS011;38103;42.776;23.112;2022-08-25T01:52:58;22.05;;;7.80;;
52104;SDS011;38103;42.776;23.112;2022-08-25T01:55:42;21.70;;;7.68;;
52104;SDS011;38103;42.776;23.112;2022-08-25T01:58:19;18.30;;;7.82;;
52104;SDS011;38103;42.776;23.112;2022-08-25T02:01:06;19.52;;;7.72;;
52104;SDS011;38103;42.776;23.112;2022-08-25T02:03:35;20.10;;;7.25;;
52104;SDS011;38103;42.776;23.112;2022-08-25T02:06:03;21.58;;;7.30;;
52104;SDS011;38103;42.776;23.112;2022-08-25T02:08:29;23.00;;;7.80;;
52104;SDS011;38103;42.776;23.112;2022-08-25T02:10:55;20.42;;;7.40;;
52104;SDS011;38103;42.776;23.112;2022-08-25T02:13:20;20.48;;;7.65;;
52104;SDS011;38103;42.776;23.112;2022-08-25T02:15:47;23.83;;;8.00;;
52104;SDS011;38103;42.776;23.112;2022-08-25T02:18:16;18.52;;;7.78;;
52104;SDS011;38103;42.776;23.112;2022-08-25T02:20:43;23.00;;;7.88;;
52104;SDS011;38103;42.776;23.112;2022-08-25T02:23:09;22.48;;;7.80;;
52104;SDS011;38103;42.776;23.112;2022-08-25T02:25:36;23.33;;;8.05;;
52104;SDS011;38103;42.776;23.112;2022-08-25T02:28:03;21.42;;;7.43;;
52104;SDS011;38103;42.776;23.112;2022-08-25T02:30:28;21.15;;;7.53;;
52104;SDS011;38103;42.776;23.112;2022-08-25T02:32:54;19.75;;;8.00;;
52104;SDS011;38103;42.776;23.112;2022-08-25T02:35:20;21.38;;;7.90;;
52104;SDS011;38103;42.776;23.112;2022-08-25T02:37:46;20.25;;;7.68;;
52104;SDS011;38103;42.776;23.112;2022-08-25T02:40:12;18.30;;;8.45;;
52104;SDS011;38103;42.776;23.112;2022-08-25T02:42:37;17.40;;;7.40;;
52104;SDS011;38103;42.776;23.112;2022-08-25T02:45:03;21.27;;;7.70;;
52104;SDS011;38103;42.776;23.112;2022-08-25T02:47:30;16.38;;;7.85;;
52104;SDS011;38103;42.776;23.112;2022-08-25T02:49:55;18.05;;;8.07;;
52104;SDS011;38103;42.776;23.112;2022-08-25T02:52:22;23.55;;;7.90;;
52104;SDS011;38103;42.776;23.112;2022-08-25T02:54:47;18.30;;;7.35;;
52104;SDS011;38103;42.776;23.112;2022-08-25T02:57:12;23.52;;;8.10;;
52104;SDS011;38103;42.776;23.112;2022-08-25T02:59:39;25.63;;;7.75;;
52104;SDS011;38103;42.776;23.112;2022-08-25T03:02:05;15.85;;;7.55;;
52104;SDS011;38103;42.776;23.112;2022-08-25T03:04:31;21.55;;;7.88;;
52104;SDS011;38103;42.776;23.112;2022-08-25T03:06:56;24.08;;;7.15;;
52104;SDS011;38103;42.776;23.112;2022-08-25T03:09:23;21.33;;;8.10;;
52104;SDS011;38103;42.776;23.112;2022-08-25T03:11:48;17.40;;;8.02;;
52104;SDS011;38103;42.776;23.112;2022-08-25T03:14:14;20.85;;;7.78;;
52104;SDS011;38103;42.776;23.112;2022-08-25T03:16:40;19.08;;;8.10;;
52104;SDS011;38103;42.776;23.112;2022-08-25T03:19:06;15.48;;;7.63;;
52104;SDS011;38103;42.776;23.112;2022-08-25T03:21:32;20.05;;;8.93;;
52104;SDS011;38103;42.776;23.112;2022-08-25T03:23:57;24.35;;;8.27;;
52104;SDS011;38103;42.776;23.112;2022-08-25T03:26:23;17.42;;;7.55;;
52104;SDS011;38103;42.776;23.112;2022-08-25T03:29:08;20.60;;;9.48;;
52104;SDS011;38103;42.776;23.112;2022-08-25T03:31:34;22.20;;;8.80;;
52104;SDS011;38103;42.776;23.112;2022-08-25T03:34:00;19.15;;;9.00;;
52104;SDS011;38103;42.776;23.112;2022-08-25T03:36:26;20.20;;;9.18;;
52104;SDS011;38103;42.776;23.112;2022-08-25T03:38:52;22.02;;;8.98;;
52104;SDS011;38103;42.776;23.112;2022-08-25T03:41:21;25.85;;;9.07;;
52104;SDS011;38103;42.776;23.112;2022-08-25T03:43:51;18.52;;;8.23;;
52104;SDS011;38103;42.776;23.112;2022-08-25T03:46:24;18.55;;;8.52;;
52104;SDS011;38103;42.776;23.112;2022-08-25T03:48:52;20.52;;;8.27;;
52104;SDS011;38103;42.776;23.112;2022-08-25T03:51:18;21.25;;;8.30;;
52104;SDS011;38103;42.776;23.112;2022-08-25T03:53:48;17.55;;;8.35;;
52104;SDS011;38103;42.776;23.112;2022-08-25T03:56:14;21.08;;;9.35;;
52104;SDS011;38103;42.776;23.112;2022-08-25T03:58:39;18.48;;;9.43;;
52104;SDS011;38103;42.776;23.112;2022-08-25T04:01:05;23.05;;;8.88;;
52104;SDS011;38103;42.776;23.112;2022-08-25T04:03:30;20.23;;;8.32;;
52104;SDS011;38103;42.776;23.112;2022-08-25T04:05:59;23.02;;;8.52;;
52104;SDS011;38103;42.776;23.112;2022-08-25T04:08:26;17.02;;;8.55;;
52104;SDS011;38103;42.776;23.112;2022-08-25T04:10:51;20.80;;;8.25;;
52104;SDS011;38103;42.776;23.112;2022-08-25T04:13:16;22.17;;;9.13;;
52104;SDS011;38103;42.776;23.112;2022-08-25T04:15:42;21.55;;;9.30;;
52104;SDS011;38103;42.776;23.112;2022-08-25T04:18:08;19.35;;;8.93;;
52104;SDS011;38103;42.776;23.112;2022-08-25T04:20:35;22.88;;;8.75;;
52104;SDS011;38103;42.776;23.112;2022-08-25T04:35:14;18.27;;;8.32;;
52104;SDS011;38103;42.776;23.112;2022-08-25T04:37:40;24.83;;;8.60;;
52104;SDS011;38103;42.776;23.112;2022-08-25T04:40:06;21.42;;;8.30;;
52104;SDS011;38103;42.776;23.112;2022-08-25T04:42:32;22.88;;;8.38;;
52104;SDS011;38103;42.776;23.112;2022-08-25T04:44:58;15.55;;;8.05;;
52104;SDS011;38103;42.776;23.112;2022-08-25T04:47:26;16.67;;;8.32;;
52104;SDS011;38103;42.776;23.112;2022-08-25T04:49:51;21.70;;;8.55;;
52104;SDS011;38103;42.776;23.112;2022-08-25T04:52:17;17.70;;;8.13;;
52104;SDS011;38103;42.776;23.112;2022-08-25T04:54:43;25.33;;;9.10;;
52104;SDS011;38103;42.776;23.112;2022-08-25T04:57:09;22.88;;;8.55;;
52104;SDS011;38103;42.776;23.112;2022-08-25T04:59:35;21.42;;;8.80;;
52104;SDS011;38103;42.776;23.112;2022-08-25T05:02:00;19.02;;;8.00;;
52104;SDS011;38103;42.776;23.112;2022-08-25T05:04:27;19.17;;;8.50;;
52104;SDS011;38103;42.776;23.112;2022-08-25T05:06:53;18.67;;;8.90;;
52104;SDS011;38103;42.776;23.112;2022-08-25T05:09:18;24.58;;;8.68;;
52104;SDS011;38103;42.776;23.112;2022-08-25T05:11:44;19.23;;;8.35;;
52104;SDS011;38103;42.776;23.112;2022-08-25T05:14:09;19.30;;;8.55;;
52104;SDS011;38103;42.776;23.112;2022-08-25T05:16:37;17.08;;;8.10;;
52104;SDS011;38103;42.776;23.112;2022-08-25T05:19:04;24.88;;;8.25;;
52104;SDS011;38103;42.776;23.112;2022-08-25T05:21:29;19.27;;;9.27;;
52104;SDS011;38103;42.776;23.112;2022-08-25T05:23:55;21.92;;;8.95;;
52104;SDS011;38103;42.776;23.112;2022-08-25T05:26:22;18.48;;;9.25;;
52104;SDS011;38103;42.776;23.112;2022-08-25T05:28:50;22.02;;;8.43;;
52104;SDS011;38103;42.776;23.112;2022-08-25T05:31:18;23.70;;;9.35;;
52104;SDS011;38103;42.776;23.112;2022-08-25T05:33:44;21.23;;;8.50;;
52104;SDS011;38103;42.776;23.112;2022-08-25T05:36:10;20.77;;;8.73;;
52104;SDS011;38103;42.776;23.112;2022-08-25T05:38:37;23.63;;;8.13;;
52104;SDS011;38103;42.776;23.112;2022-08-25T05:41:05;16.85;;;7.80;;
52104;SDS011;38103;42.776;23.112;2022-08-25T05:43:37;24.92;;;8.52;;
52104;SDS011;38103;42.776;23.112;2022-08-25T05:46:04;23.08;;;9.18;;
52104;SDS011;38103;42.776;23.112;2022-08-25T05:48:30;21.73;;;8.70;;
52104;SDS011;38103;42.776;23.112;2022-08-25T05:50:57;17.48;;;8.85;;
52104;SDS011;38103;42.776;23.112;2022-08-25T05:53:25;17.42;;;8.10;;
52104;SDS011;38103;42.776;23.112;2022-08-25T05:55:52;20.67;;;8.10;;
52104;SDS011;38103;42.776;23.112;2022-08-25T05:58:19;19.00;;;8.70;;
52104;SDS011;38103;42.776;23.112;2022-08-25T06:00:45;20.75;;;8.32;;
52104;SDS011;38103;42.776;23.112;2022-08-25T06:03:11;17.67;;;7.97;;
52104;SDS011;38103;42.776;23.112;2022-08-25T06:05:36;24.25;;;8.95;;
52104;SDS011;38103;42.776;23.112;2022-08-25T06:08:02;21.75;;;8.43;;
52104;SDS011;38103;42.776;23.112;2022-08-25T06:10:28;17.75;;;8.70;;
52104;SDS011;38103;42.776;23.112;2022-08-25T06:12:53;19.40;;;8.85;;
52104;SDS011;38103;42.776;23.112;2022-08-25T06:15:20;21.08;;;8.70;;
52104;SDS011;38103;42.776;23.112;2022-08-25T06:17:47;17.25;;;7.60;;
52104;SDS011;38103;42.776;23.112;2022-08-25T06:20:14;22.02;;;8.48;;
52104;SDS011;38103;42.776;23.112;2022-08-25T06:22:42;24.33;;;8.40;;
52104;SDS011;38103;42.776;23.112;2022-08-25T06:25:09;20.95;;;8.35;;
52104;SDS011;38103;42.776;23.112;2022-08-25T06:27:37;16.02;;;7.28;;
52104;SDS011;38103;42.776;23.112;2022-08-25T06:30:04;16.13;;;7.95;;
52104;SDS011;38103;42.776;23.112;2022-08-25T06:32:35;14.43;;;7.68;;
52104;SDS011;38103;42.776;23.112;2022-08-25T06:35:06;19.85;;;8.13;;
52104;SDS011;38103;42.776;23.112;2022-08-25T06:37:34;17.08;;;7.82;;
52104;SDS011;38103;42.776;23.112;2022-08-25T06:40:00;19.73;;;7.53;;
52104;SDS011;38103;42.776;23.112;2022-08-25T06:42:25;20.73;;;8.05;;
52104;SDS011;38103;42.776;23.112;2022-08-25T06:44:51;16.38;;;7.22;;
52104;SDS011;38103;42.776;23.112;2022-08-25T06:47:16;18.60;;;7.60;;
52104;SDS011;38103;42.776;23.112;2022-08-25T06:49:42;20.92;;;7.60;;
52104;SDS011;38103;42.776;23.112;2022-08-25T06:52:09;18.85;;;6.57;;
52104;SDS011;38103;42.776;23.112;2022-08-25T06:54:35;13.63;;;6.32;;
52104;SDS011;38103;42.776;23.112;2022-08-25T06:57:00;16.73;;;6.88;;
52104;SDS011;38103;42.776;23.112;2022-08-25T06:59:27;14.30;;;6.50;;
52104;SDS011;38103;42.776;23.112;2022-08-25T07:01:52;15.95;;;7.25;;
52104;SDS011;38103;42.776;23.112;2022-08-25T07:04:18;15.70;;;7.50;;
52104;SDS011;38103;42.776;23.112;2022-08-25T07:06:44;18.60;;;7.10;;
52104;SDS011;38103;42.776;23.112;2022-08-25T07:09:10;20.98;;;8.38;;
52104;SDS011;38103;42.776;23.112;2022-08-25T07:11:40;16.42;;;7.25;;
52104;SDS011;38103;42.776;23.112;2022-08-25T07:14:07;15.90;;;6.93;;
52104;SDS011;38103;42.776;23.112;2022-08-25T07:16:35;19.63;;;7.40;;
52104;SDS011;38103;42.776;23.112;2022-08-25T07:19:01;21.75;;;7.95;;
52104;SDS011;38103;42.776;23.112;2022-08-25T07:21:28;16.92;;;6.88;;
52104;SDS011;38103;42.776;23.112;2022-08-25T07:23:54;17.33;;;7.45;;
52104;SDS011;38103;42.776;23.112;2022-08-25T07:26:24;22.30;;;7.20;;
52104;SDS011;38103;42.776;23.112;2022-08-25T07:28:51;24.27;;;7.88;;
52104;SDS011;38103;42.776;23.112;2022-08-25T07:31:16;21.90;;;7.97;;
52104;SDS011;38103;42.776;23.112;2022-08-25T07:33:42;21.48;;;7.57;;
52104;SDS011;38103;42.776;23.112;2022-08-25T07:36:27;20.95;;;7.72;;
52104;SDS011;38103;42.776;23.112;2022-08-25T07:38:55;16.50;;;7.47;;
52104;SDS011;38103;42.776;23.112;2022-08-25T07:41:20;19.63;;;7.55;;
52104;SDS011;38103;42.776;23.112;2022-08-25T07:43:46;21.65;;;8.10;;
52104;SDS011;38103;42.776;23.112;2022-08-25T07:46:12;18.92;;;7.30;;
52104;SDS011;38103;42.776;23.112;2022-08-25T07:48:37;17.77;;;8.00;;
52104;SDS011;38103;42.776;23.112;2022-08-25T07:51:06;17.02;;;7.57;;
52104;SDS011;38103;42.776;23.112;2022-08-25T07:53:34;15.68;;;7.22;;
52104;SDS011;38103;42.776;23.112;2022-08-25T07:55:59;18.70;;;8.60;;
52104;SDS011;38103;42.776;23.112;2022-08-25T07:58:25;19.65;;;7.63;;
52104;SDS011;38103;42.776;23.112;2022-08-25T08:00:51;21.90;;;7.25;;
52104;SDS011;38103;42.776;23.112;2022-08-25T08:03:17;18.38;;;8.27;;
52104;SDS011;38103;42.776;23.112;2022-08-25T08:05:44;18.90;;;7.72;;
52104;SDS011;38103;42.776;23.112;2022-08-25T08:08:09;20.88;;;7.50;;
52104;SDS011;38103;42.776;23.112;2022-08-25T08:10:37;20.60;;;7.70;;
52104;SDS011;38103;42.776;23.112;2022-08-25T08:13:04;22.42;;;7.43;;
52104;SDS011;38103;42.776;23.112;2022-08-25T08:15:30;21.48;;;7.35;;
52104;SDS011;38103;42.776;23.112;2022-08-25T08:17:56;26.35;;;7.85;;
52104;SDS011;38103;42.776;23.112;2022-08-25T08:20:22;18.50;;;7.38;;
52104;SDS011;38103;42.776;23.112;2022-08-25T08:22:48;21.98;;;7.10;;
52104;SDS011;38103;42.776;23.112;2022-08-25T08:25:13;29.02;;;8.40;;
52104;SDS011;38103;42.776;23.112;2022-08-25T08:27:39;21.27;;;7.95;;
52104;SDS011;38103;42.776;23.112;2022-08-25T08:30:07;22.33;;;6.95;;
52104;SDS011;38103;42.776;23.112;2022-08-25T08:32:33;17.50;;;7.22;;
52104;SDS011;38103;42.776;23.112;2022-08-25T08:34:58;20.52;;;7.20;;
52104;SDS011;38103;42.776;23.112;2022-08-25T08:37:23;22.88;;;7.95;;
52104;SDS011;38103;42.776;23.112;2022-08-25T08:39:49;23.13;;;7.22;;
52104;SDS011;38103;42.776;23.112;2022-08-25T08:45:05;22.17;;;7.50;;
52104;SDS011;38103;42.776;23.112;2022-08-25T08:50:28;20.23;;;6.97;;
52104;SDS011;38103;42.776;23.112;2022-08-25T08:53:42;26.75;;;7.53;;
52104;SDS011;38103;42.776;23.112;2022-08-25T08:55:56;16.42;;;6.63;;
52104;SDS011;38103;42.776;23.112;2022-08-25T08:58:25;28.60;;;6.70;;
52104;SDS011;38103;42.776;23.112;2022-08-25T09:00:59;21.05;;;6.93;;
52104;SDS011;38103;42.776;23.112;2022-08-25T09:06:01;21.52;;;7.05;;
52104;SDS011;38103;42.776;23.112;2022-08-25T09:08:31;27.15;;;6.28;;
52104;SDS011;38103;42.776;23.112;2022-08-25T09:11:09;25.88;;;4.20;;
52104;SDS011;38103;42.776;23.112;2022-08-25T09:14:06;22.15;;;4.30;;
52104;SDS011;38103;42.776;23.112;2022-08-25T09:21:47;23.90;;;4.75;;
52104;SDS011;38103;42.776;23.112;2022-08-25T09:27:05;20.95;;;3.88;;
52104;SDS011;38103;42.776;23.112;2022-08-25T09:29:41;28.98;;;3.97;;
52104;SDS011;38103;42.776;23.112;2022-08-25T09:32:22;22.65;;;4.38;;
52104;SDS011;38103;42.776;23.112;2022-08-25T09:34:49;27.88;;;3.85;;
52104;SDS011;38103;42.776;23.112;2022-08-25T09:37:16;20.70;;;3.80;;
52104;SDS011;38103;42.776;23.112;2022-08-25T09:39:41;19.05;;;3.97;;
52104;SDS011;38103;42.776;23.112;2022-08-25T09:42:06;29.05;;;3.85;;
52104;SDS011;38103;42.776;23.112;2022-08-25T09:44:33;16.90;;;3.25;;
52104;SDS011;38103;42.776;23.112;2022-08-25T09:47:07;25.45;;;3.88;;
52104;SDS011;38103;42.776;23.112;2022-08-25T09:49:39;22.50;;;4.53;;
52104;SDS011;38103;42.776;23.112;2022-08-25T09:52:35;17.00;;;3.72;;
52104;SDS011;38103;42.776;23.112;2022-08-25T10:00:11;20.98;;;5.57;;
52104;SDS011;38103;42.776;23.112;2022-08-25T10:05:29;18.45;;;3.78;;
52104;SDS011;38103;42.776;23.112;2022-08-25T10:07:59;16.80;;;4.10;;
52104;SDS011;38103;42.776;23.112;2022-08-25T10:12:56;20.58;;;4.28;;
52104;SDS011;38103;42.776;23.112;2022-08-25T10:15:42;14.20;;;3.55;;
52104;SDS011;38103;42.776;23.112;2022-08-25T10:20:44;23.20;;;3.40;;
52104;SDS011;38103;42.776;23.112;2022-08-25T10:23:47;16.23;;;3.50;;
52104;SDS011;38103;42.776;23.112;2022-08-25T10:26:21;16.02;;;4.10;;
52104;SDS011;38103;42.776;23.112;2022-08-25T10:31:23;24.98;;;3.70;;
52104;SDS011;38103;42.776;23.112;2022-08-25T10:39:25;17.63;;;4.75;;
52104;SDS011;38103;42.776;23.112;2022-08-25T10:42:27;26.92;;;3.80;;
52104;SDS011;38103;42.776;23.112;2022-08-25T10:56:40;14.90;;;4.15;;
52104;SDS011;38103;42.776;23.112;2022-08-25T11:08:38;20.70;;;4.32;;
52104;SDS011;38103;42.776;23.112;2022-08-25T11:13:56;18.35;;;4.05;;
52104;SDS011;38103;42.776;23.112;2022-08-25T11:18:57;20.92;;;4.32;;
52104;SDS011;38103;42.776;23.112;2022-08-25T11:21:41;14.52;;;4.07;;
52104;SDS011;38103;42.776;23.112;2022-08-25T11:26:55;21.73;;;4.38;;
52104;SDS011;38103;42.776;23.112;2022-08-25T11:29:23;13.00;;;4.20;;
52104;SDS011;38103;42.776;23.112;2022-08-25T11:34:22;17.85;;;4.28;;
52104;SDS011;38103;42.776;23.112;2022-08-25T11:36:51;19.20;;;3.88;;
52104;SDS011;38103;42.776;23.112;2022-08-25T11:53:35;13.27;;;4.15;;
52104;SDS011;38103;42.776;23.112;2022-08-25T11:56:36;14.90;;;4.88;;
52104;SDS011;38103;42.776;23.112;2022-08-25T11:58:57;13.15;;;3.80;;
52104;SDS011;38103;42.776;23.112;2022-08-25T12:04:10;19.00;;;4.00;;
52104;SDS011;38103;42.776;23.112;2022-08-25T12:17:42;14.63;;;3.92;;
52104;SDS011;38103;42.776;23.112;2022-08-25T12:20:08;18.65;;;3.97;;
52104;SDS011;38103;42.776;23.112;2022-08-25T12:25:02;17.85;;;4.18;;
52104;SDS011;38103;42.776;23.112;2022-08-25T12:36:24;18.52;;;3.88;;
52104;SDS011;38103;42.776;23.112;2022-08-25T12:39:06;17.90;;;3.83;;
52104;SDS011;38103;42.776;23.112;2022-08-25T12:41:50;17.73;;;4.10;;
52104;SDS011;38103;42.776;23.112;2022-08-25T12:49:43;19.00;;;4.03;;
52104;SDS011;38103;42.776;23.112;2022-08-25T12:52:14;16.50;;;3.78;;
52104;SDS011;38103;42.776;23.112;2022-08-25T13:00:16;18.23;;;5.07;;
52104;SDS011;38103;42.776;23.112;2022-08-25T13:10:57;16.73;;;3.83;;
52104;SDS011;38103;42.776;23.112;2022-08-25T13:16:08;18.70;;;4.03;;
52104;SDS011;38103;42.776;23.112;2022-08-25T13:18:41;16.42;;;3.95;;
52104;SDS011;38103;42.776;23.112;2022-08-25T13:23:41;22.00;;;4.90;;
52104;SDS011;38103;42.776;23.112;2022-08-25T13:26:20;17.48;;;4.05;;
52104;SDS011;38103;42.776;23.112;2022-08-25T13:29:34;16.92;;;4.45;;
52104;SDS011;38103;42.776;23.112;2022-08-25T13:31:35;18.25;;;4.80;;
52104;SDS011;38103;42.776;23.112;2022-08-25T13:34:06;20.77;;;4.18;;
52104;SDS011;38103;42.776;23.112;2022-08-25T13:36:35;21.30;;;4.50;;
52104;SDS011;38103;42.776;23.112;2022-08-25T13:39:26;24.35;;;4.43;;
52104;SDS011;38103;42.776;23.112;2022-08-25T13:41:54;20.58;;;4.50;;
52104;SDS011;38103;42.776;23.112;2022-08-25T13:44:22;20.92;;;4.00;;
52104;SDS011;38103;42.776;23.112;2022-08-25T13:49:30;22.80;;;3.72;;
52104;SDS011;38103;42.776;23.112;2022-08-25T13:51:55;21.13;;;4.63;;
52104;SDS011;38103;42.776;23.112;2022-08-25T13:54:30;20.40;;;4.32;;
52104;SDS011;38103;42.776;23.112;2022-08-25T13:57:21;15.23;;;3.55;;
52104;SDS011;38103;42.776;23.112;2022-08-25T13:59:49;21.48;;;3.95;;
52104;SDS011;38103;42.776;23.112;2022-08-25T14:05:04;18.40;;;4.43;;
52104;SDS011;38103;42.776;23.112;2022-08-25T14:07:30;19.85;;;4.47;;
52104;SDS011;38103;42.776;23.112;2022-08-25T14:10:01;22.50;;;5.18;;
52104;SDS011;38103;42.776;23.112;2022-08-25T14:12:33;20.20;;;4.43;;
52104;SDS011;38103;42.776;23.112;2022-08-25T14:17:44;23.50;;;4.07;;
52104;SDS011;38103;42.776;23.112;2022-08-25T14:20:34;29.27;;;8.70;;
52104;SDS011;38103;42.776;23.112;2022-08-25T14:25:36;21.40;;;4.38;;
52104;SDS011;38103;42.776;23.112;2022-08-25T14:28:03;18.98;;;4.60;;
52104;SDS011;38103;42.776;23.112;2022-08-25T14:30:31;16.13;;;4.22;;
52104;SDS011;38103;42.776;23.112;2022-08-25T14:32:59;16.50;;;4.13;;
52104;SDS011;38103;42.776;23.112;2022-08-25T14:35:26;13.13;;;3.92;;
52104;SDS011;38103;42.776;23.112;2022-08-25T14:37:53;24.67;;;6.15;;
52104;SDS011;38103;42.776;23.112;2022-08-25T14:40:19;18.17;;;7.53;;
52104;SDS011;38103;42.776;23.112;2022-08-25T14:42:46;19.52;;;3.90;;
52104;SDS011;38103;42.776;23.112;2022-08-25T14:45:15;17.17;;;4.15;;
52104;SDS011;38103;42.776;23.112;2022-08-25T14:47:42;23.40;;;4.68;;
52104;SDS011;38103;42.776;23.112;2022-08-25T14:50:10;21.63;;;4.10;;
52104;SDS011;38103;42.776;23.112;2022-08-25T14:52:36;20.17;;;4.35;;
52104;SDS011;38103;42.776;23.112;2022-08-25T14:55:02;23.65;;;4.35;;
52104;SDS011;38103;42.776;23.112;2022-08-25T14:57:27;15.15;;;4.55;;
52104;SDS011;38103;42.776;23.112;2022-08-25T14:59:53;18.02;;;4.35;;
52104;SDS011;38103;42.776;23.112;2022-08-25T15:02:19;24.98;;;4.72;;
52104;SDS011;38103;42.776;23.112;2022-08-25T15:04:51;19.20;;;4.60;;
52104;SDS011;38103;42.776;23.112;2022-08-25T15:07:19;16.60;;;4.32;;
52104;SDS011;38103;42.776;23.112;2022-08-25T15:10:04;19.10;;;5.13;;
52104;SDS011;38103;42.776;23.112;2022-08-25T15:12:31;15.65;;;4.85;;
52104;SDS011;38103;42.776;23.112;2022-08-25T15:14:57;17.88;;;4.35;;
52104;SDS011;38103;42.776;23.112;2022-08-25T15:17:22;24.48;;;5.03;;
52104;SDS011;38103;42.776;23.112;2022-08-25T15:19:48;23.40;;;4.68;;
52104;SDS011;38103;42.776;23.112;2022-08-25T15:22:13;19.50;;;4.10;;
52104;SDS011;38103;42.776;23.112;2022-08-25T15:24:39;17.50;;;4.22;;
52104;SDS011;38103;42.776;23.112;2022-08-25T15:27:04;19.08;;;3.95;;
52104;SDS011;38103;42.776;23.112;2022-08-25T15:29:32;13.95;;;3.80;;
52104;SDS011;38103;42.776;23.112;2022-08-25T15:31:59;19.00;;;4.90;;
52104;SDS011;38103;42.776;23.112;2022-08-25T15:34:26;20.58;;;4.78;;
52104;SDS011;38103;42.776;23.112;2022-08-25T15:36:53;14.63;;;3.80;;
52104;SDS011;38103;42.776;23.112;2022-08-25T15:39:18;21.02;;;3.85;;
52104;SDS011;38103;42.776;23.112;2022-08-25T15:41:44;21.17;;;4.38;;
52104;SDS011;38103;42.776;23.112;2022-08-25T15:44:12;21.02;;;4.55;;
52104;SDS011;38103;42.776;23.112;2022-08-25T15:46:38;19.73;;;4.82;;
52104;SDS011;38103;42.776;23.112;2022-08-25T15:49:05;18.92;;;4.32;;
52104;SDS011;38103;42.776;23.112;2022-08-25T15:51:31;25.48;;;4.43;;
52104;SDS011;38103;42.776;23.112;2022-08-25T15:53:57;15.13;;;4.45;;
52104;SDS011;38103;42.776;23.112;2022-08-25T15:56:22;23.95;;;4.70;;
52104;SDS011;38103;42.776;23.112;2022-08-25T15:58:50;22.50;;;4.50;;
52104;SDS011;38103;42.776;23.112;2022-08-25T16:01:17;19.85;;;5.60;;
52104;SDS011;38103;42.776;23.112;2022-08-25T16:03:45;24.17;;;4.47;;
52104;SDS011;38103;42.776;23.112;2022-08-25T16:06:11;23.30;;;4.57;;
52104;SDS011;38103;42.776;23.112;2022-08-25T16:08:37;19.95;;;4.47;;
52104;SDS011;38103;42.776;23.112;2022-08-25T16:11:04;14.45;;;4.18;;
52104;SDS011;38103;42.776;23.112;2022-08-25T16:13:30;20.88;;;4.35;;
52104;SDS011;38103;42.776;23.112;2022-08-25T16:15:56;26.33;;;4.05;;
52104;SDS011;38103;42.776;23.112;2022-08-25T16:18:22;24.75;;;4.70;;
52104;SDS011;38103;42.776;23.112;2022-08-25T16:20:48;18.60;;;3.88;;
52104;SDS011;38103;42.776;23.112;2022-08-25T16:23:15;19.48;;;4.22;;
52104;SDS011;38103;42.776;23.112;2022-08-25T16:25:42;18.52;;;4.38;;
52104;SDS011;38103;42.776;23.112;2022-08-25T16:28:10;18.67;;;4.13;;
52104;SDS011;38103;42.776;23.112;2022-08-25T16:30:37;16.05;;;4.25;;
52104;SDS011;38103;42.776;23.112;2022-08-25T16:33:04;18.17;;;4.15;;
52104;SDS011;38103;42.776;23.112;2022-08-25T16:35:30;15.20;;;3.97;;
52104;SDS011;38103;42.776;23.112;2022-08-25T16:37:56;18.48;;;4.10;;
52104;SDS011;38103;42.776;23.112;2022-08-25T16:40:21;17.98;;;4.30;;
52104;SDS011;38103;42.776;23.112;2022-08-25T16:42:50;25.27;;;4.70;;
52104;SDS011;38103;42.776;23.112;2022-08-25T16:45:16;21.52;;;4.18;;
52104;SDS011;38103;42.776;23.112;2022-08-25T16:47:42;20.35;;;4.30;;
52104;SDS011;38103;42.776;23.112;2022-08-25T16:50:08;20.50;;;4.03;;
52104;SDS011;38103;42.776;23.112;2022-08-25T16:52:34;25.55;;;4.40;;
52104;SDS011;38103;42.776;23.112;2022-08-25T16:55:18;19.80;;;4.25;;
52104;SDS011;38103;42.776;23.112;2022-08-25T16:57:46;16.63;;;4.07;;
52104;SDS011;38103;42.776;23.112;2022-08-25T17:00:15;14.75;;;3.80;;
52104;SDS011;38103;42.776;23.112;2022-08-25T17:02:43;25.52;;;4.50;;
52104;SDS011;38103;42.776;23.112;2022-08-25T17:05:09;20.52;;;4.75;;
52104;SDS011;38103;42.776;23.112;2022-08-25T17:07:35;17.15;;;4.30;;